createdAt,value
2022-08-23T00:00:05.580Z,17.94
2022-08-23T00:02:42.376Z,18.37
2022-08-23T00:05:13.707Z,18.02
2022-08-23T00:07:43.583Z,18.29
2022-08-23T00:10:12.698Z,17.99
2022-08-23T00:12:42.584Z,17.70
2022-08-23T00:15:12.153Z,17.18
2022-08-23T00:17:42.099Z,16.85
2022-08-23T00:20:11.785Z,16.73
2022-08-23T00:22:40.842Z,16.67
2022-08-23T00:25:11.155Z,16.50
2022-08-23T00:27:39.210Z,16.36
2022-08-23T00:30:12.279Z,16.17
2022-08-23T00:32:40.759Z,16.21
2022-08-23T00:35:10.114Z,16.25
2022-08-23T00:37:40.582Z,16.32
2022-08-23T00:40:10.937Z,16.43
2022-08-23T00:42:59.479Z,16.95
2022-08-23T00:45:49.266Z,16.90
2022-08-23T00:48:17.556Z,16.53
2022-08-23T00:50:50.702Z,16.39
2022-08-23T00:53:21.228Z,16.28
2022-08-23T00:55:50.733Z,16.48
2022-08-23T00:58:21.029Z,16.38
2022-08-23T01:00:53.117Z,16.32
2022-08-23T01:03:21.294Z,16.40
2022-08-23T01:05:53.251Z,16.50
2022-08-23T01:08:23.600Z,16.71
2022-08-23T01:10:55.529Z,16.63
2022-08-23T01:13:26.491Z,16.58
2022-08-23T01:15:58.753Z,16.26
2022-08-23T01:18:29.444Z,16.13
2022-08-23T01:21:02.608Z,16.19
2022-08-23T01:23:35.079Z,16.24
2022-08-23T01:26:03.476Z,16.52
2022-08-23T01:28:33.576Z,16.59
2022-08-23T01:31:04.019Z,16.49
2022-08-23T01:33:35.017Z,16.30
2022-08-23T01:36:04.277Z,15.98
2022-08-23T01:38:39.856Z,15.88
2022-08-23T01:41:10.367Z,15.84
2022-08-23T01:43:38.426Z,15.73
2022-08-23T01:46:10.755Z,15.74
2022-08-23T01:48:39.244Z,15.60
2022-08-23T01:51:08.189Z,15.63
2022-08-23T01:53:37.157Z,15.70
2022-08-23T01:56:07.371Z,15.84
2022-08-23T01:58:37.987Z,16.30
2022-08-23T02:01:06.774Z,16.29
2022-08-23T02:03:37.151Z,16.21
2022-08-23T02:06:05.738Z,16.26
2022-08-23T02:08:52.176Z,16.19
2022-08-23T02:11:25.838Z,15.97
2022-08-23T02:13:55.275Z,16.08
2022-08-23T02:16:27.892Z,16.14
2022-08-23T02:18:57.817Z,16.09
2022-08-23T02:21:26.483Z,16.11
2022-08-23T02:23:54.503Z,16.18
2022-08-23T02:26:31.048Z,16.26
2022-08-23T02:29:00.884Z,15.85
2022-08-23T02:31:29.112Z,16.00
2022-08-23T02:33:57.443Z,15.88
2022-08-23T02:36:27.552Z,15.75
2022-08-23T02:38:56.604Z,15.80
2022-08-23T02:41:25.261Z,15.80
2022-08-23T02:43:54.118Z,15.78
2022-08-23T02:46:25.459Z,15.77
2022-08-23T02:48:54.104Z,16.07
2022-08-23T02:51:26.214Z,15.80
2022-08-23T02:53:54.690Z,15.74
2022-08-23T02:56:24.847Z,15.76
2022-08-23T02:58:54.423Z,15.68
2022-08-23T03:01:27.159Z,15.42
2022-08-23T03:03:58.348Z,15.48
2022-08-23T03:06:28.183Z,15.32
2022-08-23T03:08:56.684Z,15.34
2022-08-23T03:11:27.834Z,15.26
2022-08-23T03:13:57.439Z,15.24
2022-08-23T03:16:26.845Z,15.28
2022-08-23T03:18:55.154Z,15.41
2022-08-23T03:21:23.372Z,15.45
2022-08-23T03:23:53.183Z,15.46
2022-08-23T03:26:21.949Z,15.42
2022-08-23T03:28:52.318Z,15.47
2022-08-23T03:31:22.445Z,15.41
2022-08-23T03:34:07.092Z,15.36
2022-08-23T03:36:36.085Z,15.20
2022-08-23T03:39:05.376Z,15.27
2022-08-23T03:41:33.458Z,15.24
2022-08-23T03:44:01.908Z,15.32
2022-08-23T03:46:34.136Z,15.27
2022-08-23T03:49:03.401Z,15.19
2022-08-23T03:51:43.194Z,15.19
2022-08-23T03:54:11.315Z,15.20
2022-08-23T03:56:50.587Z,15.26
2022-08-23T03:59:18.758Z,15.10
2022-08-23T04:01:46.846Z,15.08
2022-08-23T04:04:14.981Z,15.10
2022-08-23T04:06:59.172Z,15.30
2022-08-23T04:09:27.884Z,14.96
2022-08-23T04:11:56.425Z,14.82
2022-08-23T04:14:25.834Z,14.76
2022-08-23T04:16:54.523Z,14.64
2022-08-23T04:19:25.320Z,14.81
2022-08-23T04:22:12.748Z,14.62
2022-08-23T04:24:42.568Z,14.58
2022-08-23T04:27:11.408Z,14.22
2022-08-23T04:29:39.982Z,14.31
2022-08-23T04:32:09.775Z,14.34
2022-08-23T04:34:39.948Z,14.19
2022-08-23T04:37:10.331Z,14.14
2022-08-23T04:39:52.820Z,14.10
2022-08-23T04:42:23.253Z,14.18
2022-08-23T04:44:52.699Z,14.04
2022-08-23T04:47:21.324Z,14.07
2022-08-23T04:49:51.103Z,14.05
2022-08-23T04:52:20.723Z,13.96
2022-08-23T04:54:49.310Z,14.27
2022-08-23T04:57:42.443Z,14.40
2022-08-23T05:00:13.498Z,14.62
2022-08-23T05:02:49.107Z,14.86
2022-08-23T05:05:18.091Z,14.92
2022-08-23T05:07:47.908Z,14.82
2022-08-23T05:10:17.665Z,14.66
2022-08-23T05:12:49.847Z,14.76
2022-08-23T05:15:19.435Z,14.91
2022-08-23T05:17:50.992Z,15.05
2022-08-23T05:20:19.295Z,15.43
2022-08-23T05:22:48.881Z,15.52
2022-08-23T05:25:44.640Z,15.71
2022-08-23T05:28:15.330Z,15.51
2022-08-23T05:30:43.408Z,15.43
2022-08-23T05:33:24.820Z,15.44
2022-08-23T05:35:53.035Z,15.44
2022-08-23T05:38:22.752Z,15.38
2022-08-23T05:40:55.064Z,15.68
2022-08-23T05:43:26.750Z,15.67
2022-08-23T05:46:01.631Z,15.83
2022-08-23T05:48:32.203Z,16.23
2022-08-23T05:51:11.745Z,15.55
2022-08-23T05:53:41.458Z,15.82
2022-08-23T05:56:11.520Z,16.02
2022-08-23T05:58:39.635Z,15.72
2022-08-23T06:01:08.113Z,15.88
2022-08-23T06:03:36.315Z,16.28
2022-08-23T06:06:05.132Z,16.35
2022-08-23T06:08:33.906Z,17.32
2022-08-23T06:11:05.191Z,21.21
2022-08-23T06:13:40.729Z,21.80
2022-08-23T06:16:15.077Z,21.12
2022-08-23T06:18:44.931Z,21.82
2022-08-23T06:21:39.560Z,22.23
2022-08-23T06:24:08.052Z,18.45
2022-08-23T06:26:45.137Z,17.78
2022-08-23T06:29:14.569Z,17.88
2022-08-23T06:31:47.569Z,18.12
2022-08-23T06:34:26.942Z,18.57
2022-08-23T06:37:15.735Z,18.86
2022-08-23T06:40:12.709Z,19.41
2022-08-23T06:43:00.036Z,19.04
2022-08-23T06:45:39.774Z,19.28
2022-08-23T06:48:09.600Z,19.98
2022-08-23T06:50:37.673Z,19.37
2022-08-23T06:53:24.335Z,19.52
2022-08-23T06:56:18.451Z,19.41
2022-08-23T06:59:15.199Z,19.58
2022-08-23T07:01:59.461Z,19.80
2022-08-23T07:04:44.327Z,19.79
2022-08-23T07:07:37.638Z,20.54
2022-08-23T07:10:10.803Z,21.30
2022-08-23T07:12:40.740Z,21.32
2022-08-23T07:15:11.156Z,20.99
2022-08-23T07:17:42.418Z,20.99
2022-08-23T07:20:10.989Z,21.34
2022-08-23T07:22:41.524Z,21.32
2022-08-23T07:25:11.502Z,21.38
2022-08-23T07:27:42.350Z,21.85
2022-08-23T07:30:13.382Z,22.03
2022-08-23T07:32:41.884Z,21.52
2022-08-23T07:35:21.584Z,21.72
2022-08-23T07:37:51.147Z,22.07
2022-08-23T07:40:27.751Z,21.98
2022-08-23T07:42:58.813Z,21.98
2022-08-23T07:45:29.544Z,22.28
2022-08-23T07:48:01.857Z,21.92
2022-08-23T07:50:34.010Z,22.49
2022-08-23T07:53:03.456Z,22.09
2022-08-23T07:55:32.022Z,22.06
2022-08-23T07:58:26.732Z,22.83
2022-08-23T08:01:20.180Z,22.82
2022-08-23T08:03:52.486Z,22.59
2022-08-23T08:06:28.432Z,22.89
2022-08-23T08:08:57.042Z,22.65
2022-08-23T08:11:29.697Z,23.28
2022-08-23T08:14:03.793Z,23.10
2022-08-23T08:16:34.644Z,23.51
2022-08-23T08:19:07.723Z,23.27
2022-08-23T08:21:54.531Z,23.20
2022-08-23T08:24:38.833Z,23.21
2022-08-23T08:27:10.535Z,23.11
2022-08-23T08:29:38.604Z,23.28
2022-08-23T08:32:08.942Z,23.49
2022-08-23T08:34:42.328Z,23.76
2022-08-23T08:37:11.902Z,23.84
2022-08-23T08:39:45.603Z,23.92
2022-08-23T08:42:26.397Z,24.10
2022-08-23T08:44:56.173Z,24.50
2022-08-23T08:47:33.792Z,24.49
2022-08-23T08:50:04.124Z,24.25
2022-08-23T08:52:34.466Z,24.11
2022-08-23T08:55:09.068Z,24.36
2022-08-23T08:57:42.659Z,24.31
2022-08-23T09:00:13.475Z,24.62
2022-08-23T09:02:45.755Z,24.95
2022-08-23T09:05:18.018Z,24.78
2022-08-23T09:07:53.063Z,24.67
2022-08-23T09:10:29.000Z,25.10
2022-08-23T09:13:18.038Z,25.26
2022-08-23T09:15:53.835Z,25.28
2022-08-23T09:18:25.614Z,25.33
2022-08-23T09:20:57.891Z,25.68
2022-08-23T09:23:29.380Z,25.52
2022-08-23T09:26:03.692Z,25.19
2022-08-23T09:28:37.517Z,25.66
2022-08-23T09:31:08.374Z,26.04
2022-08-23T09:33:40.858Z,26.08
2022-08-23T09:36:19.106Z,26.08
2022-08-23T09:38:54.069Z,26.20
2022-08-23T09:41:25.160Z,26.96
2022-08-23T09:43:56.572Z,26.05
2022-08-23T09:46:28.613Z,26.51
2022-08-23T09:48:59.242Z,26.30
2022-08-23T09:51:35.932Z,26.06
2022-08-23T09:54:11.512Z,26.95
2022-08-23T09:56:41.242Z,26.42
2022-08-23T09:59:33.587Z,26.55
2022-08-23T10:02:14.603Z,26.88
2022-08-23T10:04:47.087Z,26.87
2022-08-23T10:07:25.317Z,26.52
2022-08-23T10:09:55.995Z,26.82
2022-08-23T10:12:24.997Z,26.57
2022-08-23T10:14:53.673Z,26.92
2022-08-23T10:17:28.078Z,26.41
2022-08-23T10:20:02.012Z,27.17
2022-08-23T10:22:41.934Z,27.97
2022-08-23T10:25:24.550Z,27.82
2022-08-23T10:28:15.855Z,27.70
2022-08-23T10:30:49.176Z,28.06
2022-08-23T10:33:21.144Z,27.20
2022-08-23T10:36:00.663Z,27.51
2022-08-23T10:38:42.138Z,27.50
2022-08-23T10:41:19.019Z,27.68
2022-08-23T10:43:53.656Z,27.36
2022-08-23T10:46:22.888Z,27.23
2022-08-23T10:48:53.780Z,27.55
2022-08-23T10:51:31.703Z,27.45
2022-08-23T10:54:06.141Z,27.14
2022-08-23T10:56:34.991Z,27.45
2022-08-23T10:59:08.876Z,27.27
2022-08-23T11:01:42.725Z,27.53
2022-08-23T11:04:17.631Z,27.99
2022-08-23T11:07:02.223Z,28.47
2022-08-23T11:09:52.375Z,27.88
2022-08-23T11:12:34.235Z,28.23
2022-08-23T11:15:14.239Z,27.84
2022-08-23T11:18:03.572Z,28.12
2022-08-23T11:20:53.140Z,27.80
2022-08-23T11:23:43.130Z,28.34
2022-08-23T11:26:12.423Z,28.13
2022-08-23T11:28:42.610Z,27.64
2022-08-23T11:31:22.780Z,28.36
2022-08-23T11:33:53.776Z,28.24
2022-08-23T11:36:23.810Z,28.63
2022-08-23T11:39:05.367Z,28.48
2022-08-23T11:41:34.439Z,27.80
2022-08-23T11:44:22.581Z,27.65
2022-08-23T11:47:02.142Z,28.27
2022-08-23T11:49:53.681Z,28.86
2022-08-23T11:52:32.754Z,28.73
2022-08-23T11:55:24.226Z,28.84
2022-08-23T11:58:03.531Z,28.72
2022-08-23T12:00:52.029Z,28.97
2022-08-23T12:03:25.585Z,29.05
2022-08-23T12:06:12.639Z,28.31
2022-08-23T12:08:49.370Z,28.58
2022-08-23T12:11:20.234Z,28.30
2022-08-23T12:13:50.892Z,28.68
2022-08-23T12:16:36.647Z,29.22
2022-08-23T12:19:13.732Z,28.82
2022-08-23T12:21:43.912Z,29.13
2022-08-23T12:24:20.461Z,28.51
2022-08-23T12:26:58.213Z,28.51
2022-08-23T12:29:33.616Z,28.48
2022-08-23T12:32:05.821Z,29.14
2022-08-23T12:34:39.080Z,29.46
2022-08-23T12:37:12.573Z,29.35
2022-08-23T12:39:47.636Z,29.18
2022-08-23T12:42:19.803Z,28.93
2022-08-23T12:44:48.786Z,29.08
2022-08-23T12:47:17.895Z,29.05
2022-08-23T12:49:55.240Z,30.29
2022-08-23T12:52:25.495Z,29.22
2022-08-23T12:54:57.639Z,29.14
2022-08-23T12:57:31.133Z,29.08
2022-08-23T13:00:17.546Z,29.13
2022-08-23T13:02:48.538Z,28.52
2022-08-23T13:05:22.101Z,29.02
2022-08-23T13:07:51.170Z,29.91
2022-08-23T13:10:20.010Z,29.80
2022-08-23T13:12:49.543Z,29.89
2022-08-23T13:15:34.253Z,29.74
2022-08-23T13:18:04.707Z,29.47
2022-08-23T13:20:32.870Z,28.51
2022-08-23T13:23:03.456Z,28.62
2022-08-23T13:25:35.021Z,29.22
2022-08-23T13:28:06.035Z,29.05
2022-08-23T13:30:36.288Z,29.22
2022-08-23T13:33:21.961Z,29.03
2022-08-23T13:35:50.981Z,29.27
2022-08-23T13:38:22.065Z,30.06
2022-08-23T13:40:55.067Z,29.11
2022-08-23T13:43:26.971Z,29.45
2022-08-23T13:45:56.666Z,29.92
2022-08-23T13:48:26.140Z,30.02
2022-08-23T13:50:54.273Z,30.95
2022-08-23T13:53:22.477Z,30.56
2022-08-23T13:55:52.328Z,30.09
2022-08-23T13:58:27.650Z,29.82
2022-08-23T14:00:58.627Z,30.11
2022-08-23T14:03:27.455Z,30.12
2022-08-23T14:05:55.650Z,30.83
2022-08-23T14:08:25.872Z,30.50
2022-08-23T14:10:53.995Z,30.32
2022-08-23T14:13:25.263Z,29.95
2022-08-23T14:15:56.529Z,28.97
2022-08-23T14:18:26.832Z,30.06
2022-08-23T14:20:56.377Z,29.87
2022-08-23T14:23:24.987Z,29.98
2022-08-23T14:25:54.925Z,29.70
2022-08-23T14:28:23.524Z,29.49
2022-08-23T14:30:52.394Z,29.81
2022-08-23T14:33:21.858Z,29.08
2022-08-23T14:35:52.232Z,29.41
2022-08-23T14:38:20.673Z,29.21
2022-08-23T14:40:52.720Z,29.18
2022-08-23T14:43:21.670Z,30.20
2022-08-23T14:45:50.388Z,30.27
2022-08-23T14:48:18.829Z,29.56
2022-08-23T14:50:48.454Z,30.18
2022-08-23T14:53:18.631Z,30.53
2022-08-23T14:56:01.127Z,30.93
2022-08-23T14:58:40.170Z,30.98
2022-08-23T15:01:08.375Z,30.23
2022-08-23T15:03:41.761Z,30.38
2022-08-23T15:06:11.561Z,30.83
2022-08-23T15:08:39.647Z,30.71
2022-08-23T15:14:00.078Z,30.63
2022-08-23T15:16:28.861Z,30.52
2022-08-23T15:18:57.833Z,30.47
2022-08-23T15:21:27.276Z,30.70
2022-08-23T15:23:55.393Z,30.61
2022-08-23T15:26:24.630Z,30.21
2022-08-23T15:28:53.508Z,30.74
2022-08-23T15:31:21.961Z,31.14
2022-08-23T15:33:50.150Z,31.27
2022-08-23T15:36:18.653Z,30.88
2022-08-23T15:38:49.296Z,31.21
2022-08-23T15:41:18.878Z,31.40
2022-08-23T15:43:47.211Z,31.02
2022-08-23T15:46:18.309Z,30.57
2022-08-23T15:48:48.635Z,30.63
2022-08-23T15:51:17.896Z,30.51
2022-08-23T15:53:46.177Z,30.20
2022-08-23T15:56:18.155Z,30.11
2022-08-23T15:58:48.838Z,29.97
2022-08-23T16:01:19.872Z,29.87
2022-08-23T16:03:50.890Z,29.88
2022-08-23T16:06:19.378Z,29.95
2022-08-23T16:08:50.366Z,29.78
2022-08-23T16:11:20.705Z,29.69
2022-08-23T16:13:50.109Z,29.67
2022-08-23T16:16:25.565Z,29.53
2022-08-23T16:18:54.764Z,29.51
2022-08-23T16:21:23.365Z,29.47
2022-08-23T16:23:51.753Z,29.38
2022-08-23T16:26:23.016Z,29.52
2022-08-23T16:28:59.787Z,29.36
2022-08-23T16:31:38.944Z,29.35
2022-08-23T16:34:08.941Z,29.17
2022-08-23T16:36:37.745Z,29.29
2022-08-23T16:39:05.856Z,29.32
2022-08-23T16:41:37.516Z,29.26
2022-08-23T16:44:06.042Z,29.54
2022-08-23T16:46:34.317Z,29.25
2022-08-23T16:49:02.447Z,29.13
2022-08-23T16:51:30.583Z,29.24
2022-08-23T16:54:03.217Z,29.22
2022-08-23T16:56:31.655Z,28.91
2022-08-23T16:59:01.565Z,29.11
2022-08-23T17:01:30.151Z,28.85
2022-08-23T17:03:58.338Z,29.08
2022-08-23T17:06:26.457Z,29.03
2022-08-23T17:08:54.508Z,28.90
2022-08-23T17:11:23.570Z,29.03
2022-08-23T17:13:57.845Z,29.28
2022-08-23T17:16:35.634Z,30.72
2022-08-23T17:19:03.840Z,30.45
2022-08-23T17:21:32.444Z,28.91
2022-08-23T17:24:00.987Z,28.77
2022-08-23T17:26:29.039Z,28.59
2022-08-23T17:28:57.435Z,28.50
2022-08-23T17:31:25.617Z,28.49
2022-08-23T17:33:55.369Z,28.46
2022-08-23T17:36:27.654Z,28.35
2022-08-23T17:38:56.953Z,28.33
2022-08-23T17:41:25.107Z,28.31
2022-08-23T17:43:53.220Z,28.15
2022-08-23T17:46:22.308Z,28.01
2022-08-23T17:48:50.404Z,27.93
2022-08-23T17:51:19.843Z,27.82
2022-08-23T17:53:47.942Z,27.76
2022-08-23T17:56:16.016Z,27.62
2022-08-23T17:58:44.074Z,27.59
2022-08-23T18:01:12.299Z,27.47
2022-08-23T18:03:40.386Z,27.37
2022-08-23T18:06:16.493Z,27.12
2022-08-23T18:08:47.098Z,26.95
2022-08-23T18:11:15.582Z,26.84
2022-08-23T18:13:43.581Z,26.85
2022-08-23T18:16:12.343Z,26.71
2022-08-23T18:18:40.947Z,26.64
2022-08-23T18:21:11.894Z,26.49
2022-08-23T18:23:40.075Z,26.43
2022-08-23T18:26:30.502Z,26.24
2022-08-23T18:28:57.630Z,26.16
2022-08-23T18:31:26.986Z,26.56
2022-08-23T18:34:00.187Z,26.07
2022-08-23T18:36:29.402Z,25.58
2022-08-23T18:38:57.864Z,25.51
2022-08-23T18:41:27.319Z,25.58
2022-08-23T18:43:55.382Z,25.58
2022-08-23T18:46:23.422Z,25.52
2022-08-23T18:48:53.774Z,25.51
2022-08-23T18:51:22.233Z,25.41
2022-08-23T18:53:50.297Z,25.02
2022-08-23T18:56:18.423Z,24.78
2022-08-23T18:58:47.886Z,24.49
2022-08-23T19:01:22.874Z,24.44
2022-08-23T19:03:51.190Z,24.50
2022-08-23T19:06:19.912Z,24.47
2022-08-23T19:08:49.164Z,24.53
2022-08-23T19:11:17.385Z,24.58
2022-08-23T19:13:45.467Z,24.23
2022-08-23T19:16:15.867Z,24.65
2022-08-23T19:18:46.416Z,24.49
2022-08-23T19:21:16.230Z,24.19
2022-08-23T19:23:44.515Z,24.19
2022-08-23T19:26:12.960Z,24.12
2022-08-23T19:28:41.844Z,23.84
2022-08-23T19:31:10.002Z,23.27
2022-08-23T19:33:39.557Z,22.98
2022-08-23T19:36:18.943Z,22.88
2022-08-23T19:38:51.966Z,22.87
2022-08-23T19:41:20.307Z,22.80
2022-08-23T19:43:48.354Z,22.68
2022-08-23T19:46:16.801Z,22.73
2022-08-23T19:48:47.310Z,23.08
2022-08-23T19:51:17.210Z,23.41
2022-08-23T19:54:04.552Z,23.09
2022-08-23T19:56:35.078Z,22.66
2022-08-23T19:59:04.898Z,22.29
2022-08-23T20:01:33.551Z,22.32
2022-08-23T20:04:03.261Z,22.46
2022-08-23T20:06:33.595Z,22.24
2022-08-23T20:09:01.744Z,22.15
2022-08-23T20:11:31.888Z,21.93
2022-08-23T20:14:00.149Z,21.80
2022-08-23T20:16:29.015Z,21.98
2022-08-23T20:18:57.346Z,22.03
2022-08-23T20:21:26.759Z,21.76
2022-08-23T20:24:04.098Z,21.41
2022-08-23T20:26:33.782Z,21.52
2022-08-23T20:29:01.939Z,21.27
2022-08-23T20:31:31.828Z,21.50
2022-08-23T20:34:00.576Z,21.59
2022-08-23T20:36:29.994Z,21.32
2022-08-23T20:38:59.902Z,21.69
2022-08-23T20:41:31.677Z,21.67
2022-08-23T20:43:59.833Z,21.45
2022-08-23T20:46:28.122Z,21.26
2022-08-23T20:48:57.897Z,21.08
2022-08-23T20:51:26.800Z,20.65
2022-08-23T20:53:57.039Z,20.79
2022-08-23T20:56:25.763Z,20.83
2022-08-23T20:58:54.133Z,20.96
2022-08-23T21:01:22.619Z,20.83
2022-08-23T21:03:50.699Z,20.67
2022-08-23T21:06:21.160Z,20.53
2022-08-23T21:08:50.491Z,20.54
2022-08-23T21:11:25.991Z,20.52
2022-08-23T21:13:54.561Z,20.51
2022-08-23T21:16:22.818Z,20.30
2022-08-23T21:18:51.977Z,20.67
2022-08-23T21:21:22.431Z,20.52
2022-08-23T21:23:50.724Z,19.86
2022-08-23T21:26:22.116Z,19.88
2022-08-23T21:28:51.582Z,20.16
2022-08-23T21:31:20.778Z,20.33
2022-08-23T21:33:51.623Z,20.12
2022-08-23T21:36:20.220Z,19.71
2022-08-23T21:38:48.284Z,19.87
2022-08-23T21:41:27.931Z,19.69
2022-08-23T21:43:59.682Z,19.62
2022-08-23T21:46:30.225Z,19.54
2022-08-23T21:48:58.328Z,19.68
2022-08-23T21:51:29.667Z,19.47
2022-08-23T21:53:58.391Z,19.54
2022-08-23T21:56:28.247Z,19.41
2022-08-23T21:58:59.973Z,19.66
2022-08-23T22:02:36.366Z,19.65
2022-08-23T22:05:04.921Z,19.58
2022-08-23T22:07:34.883Z,19.39
2022-08-23T22:10:06.751Z,19.41
2022-08-23T22:12:34.823Z,19.39
2022-08-23T22:15:05.753Z,19.41
2022-08-23T22:17:33.804Z,19.37
2022-08-23T22:20:04.979Z,19.71
2022-08-23T22:22:33.206Z,19.53
2022-08-23T22:25:01.575Z,19.64
2022-08-23T22:27:29.865Z,19.80
2022-08-23T22:29:58.414Z,19.85
2022-08-23T22:32:26.660Z,19.81
2022-08-23T22:34:54.729Z,19.53
2022-08-23T22:37:25.171Z,19.51
2022-08-23T22:39:56.138Z,19.46
2022-08-23T22:42:24.505Z,19.22
2022-08-23T22:44:55.691Z,19.19
2022-08-23T22:47:23.796Z,19.06
2022-08-23T22:49:51.841Z,19.00
2022-08-23T22:52:20.219Z,18.58
2022-08-23T22:54:49.656Z,18.45
2022-08-23T22:57:17.688Z,18.51
2022-08-23T22:59:45.745Z,18.41
2022-08-23T23:02:13.997Z,18.26
2022-08-23T23:04:44.084Z,18.18
2022-08-23T23:07:14.248Z,18.32
2022-08-23T23:09:42.294Z,19.03
2022-08-23T23:12:12.880Z,19.33
2022-08-23T23:14:40.923Z,18.35
2022-08-23T23:17:09.003Z,18.45
2022-08-23T23:19:54.734Z,18.29
2022-08-23T23:22:22.766Z,17.97
2022-08-23T23:24:50.809Z,18.27
2022-08-23T23:27:20.180Z,18.14
2022-08-23T23:29:48.203Z,18.18
2022-08-23T23:32:18.091Z,18.21
2022-08-23T23:34:47.843Z,18.44
2022-08-23T23:37:15.882Z,18.51
2022-08-23T23:39:43.945Z,18.64
2022-08-23T23:42:12.056Z,18.56
2022-08-23T23:44:41.826Z,18.63
2022-08-23T23:47:09.867Z,18.72
2022-08-23T23:49:37.914Z,18.84
2022-08-23T23:52:07.168Z,18.81
2022-08-23T23:54:35.658Z,18.76
2022-08-23T23:57:04.202Z,18.83
2022-08-23T23:59:32.929Z,18.76
